sensor_id;sensor_type;location;lat;lon;timestamp;P1;durP1;ratioP1;P2;durP2;ratioP2
76795;SDS011;65745;50.278;18.192;2024-02-26T00:01:52;35.40;;;18.40;;
76795;SDS011;65745;50.278;18.192;2024-02-26T00:04:24;38.90;;;20.80;;
76795;SDS011;65745;50.278;18.192;2024-02-26T00:06:57;35.10;;;19.00;;
76795;SDS011;65745;50.278;18.192;2024-02-26T00:09:29;37.80;;;20.40;;
76795;SDS011;65745;50.278;18.192;2024-02-26T00:12:05;36.40;;;21.30;;
76795;SDS011;65745;50.278;18.192;2024-02-26T00:14:37;35.60;;;18.90;;
76795;SDS011;65745;50.278;18.192;2024-02-26T00:17:10;33.20;;;19.20;;
76795;SDS011;65745;50.278;18.192;2024-02-26T00:19:43;34.90;;;19.40;;
76795;SDS011;65745;50.278;18.192;2024-02-26T00:22:16;31.80;;;18.40;;
76795;SDS011;65745;50.278;18.192;2024-02-26T00:24:48;37.40;;;21.00;;
76795;SDS011;65745;50.278;18.192;2024-02-26T00:27:21;29.00;;;17.50;;
76795;SDS011;65745;50.278;18.192;2024-02-26T00:29:53;39.10;;;21.20;;
76795;SDS011;65745;50.278;18.192;2024-02-26T00:32:25;31.90;;;19.50;;
76795;SDS011;65745;50.278;18.192;2024-02-26T00:34:57;34.80;;;19.50;;
76795;SDS011;65745;50.278;18.192;2024-02-26T00:37:29;32.20;;;19.40;;
76795;SDS011;65745;50.278;18.192;2024-02-26T00:40:02;32.20;;;18.50;;
76795;SDS011;65745;50.278;18.192;2024-02-26T00:42:35;31.10;;;21.00;;
76795;SDS011;65745;50.278;18.192;2024-02-26T00:45:10;31.90;;;19.20;;
76795;SDS011;65745;50.278;18.192;2024-02-26T00:47:46;41.10;;;21.80;;
76795;SDS011;65745;50.278;18.192;2024-02-26T00:50:19;36.00;;;19.70;;
76795;SDS011;65745;50.278;18.192;2024-02-26T00:52:51;37.90;;;21.90;;
76795;SDS011;65745;50.278;18.192;2024-02-26T00:55:23;30.70;;;20.50;;
76795;SDS011;65745;50.278;18.192;2024-02-26T00:57:55;39.60;;;21.20;;
76795;SDS011;65745;50.278;18.192;2024-02-26T01:00:28;35.60;;;20.10;;
76795;SDS011;65745;50.278;18.192;2024-02-26T01:03:00;32.60;;;19.80;;
76795;SDS011;65745;50.278;18.192;2024-02-26T01:05:34;27.40;;;16.40;;
76795;SDS011;65745;50.278;18.192;2024-02-26T01:08:07;27.70;;;17.20;;
76795;SDS011;65745;50.278;18.192;2024-02-26T01:10:39;30.20;;;18.70;;
76795;SDS011;65745;50.278;18.192;2024-02-26T01:13:12;27.00;;;16.10;;
76795;SDS011;65745;50.278;18.192;2024-02-26T01:15:44;29.20;;;16.70;;
76795;SDS011;65745;50.278;18.192;2024-02-26T01:18:17;28.20;;;14.30;;
76795;SDS011;65745;50.278;18.192;2024-02-26T01:20:49;28.60;;;17.70;;
76795;SDS011;65745;50.278;18.192;2024-02-26T01:23:23;30.90;;;18.10;;
76795;SDS011;65745;50.278;18.192;2024-02-26T01:25:55;28.60;;;17.40;;
76795;SDS011;65745;50.278;18.192;2024-02-26T01:28:28;26.40;;;15.50;;
76795;SDS011;65745;50.278;18.192;2024-02-26T01:31:00;24.90;;;17.30;;
76795;SDS011;65745;50.278;18.192;2024-02-26T01:33:34;30.10;;;17.40;;
76795;SDS011;65745;50.278;18.192;2024-02-26T01:36:07;27.60;;;17.20;;
76795;SDS011;65745;50.278;18.192;2024-02-26T01:38:39;28.00;;;18.00;;
76795;SDS011;65745;50.278;18.192;2024-02-26T01:41:11;33.70;;;20.90;;
76795;SDS011;65745;50.278;18.192;2024-02-26T01:43:45;35.60;;;20.90;;
76795;SDS011;65745;50.278;18.192;2024-02-26T01:46:17;28.10;;;17.80;;
76795;SDS011;65745;50.278;18.192;2024-02-26T01:48:50;39.50;;;22.00;;
76795;SDS011;65745;50.278;18.192;2024-02-26T01:51:23;29.50;;;18.80;;
76795;SDS011;65745;50.278;18.192;2024-02-26T01:53:55;32.40;;;19.90;;
76795;SDS011;65745;50.278;18.192;2024-02-26T01:56:28;38.50;;;20.50;;
76795;SDS011;65745;50.278;18.192;2024-02-26T01:59:02;34.60;;;22.70;;
76795;SDS011;65745;50.278;18.192;2024-02-26T02:01:35;35.00;;;22.70;;
76795;SDS011;65745;50.278;18.192;2024-02-26T02:04:10;33.40;;;21.40;;
76795;SDS011;65745;50.278;18.192;2024-02-26T02:06:43;43.50;;;25.00;;
76795;SDS011;65745;50.278;18.192;2024-02-26T02:09:18;38.50;;;23.60;;
76795;SDS011;65745;50.278;18.192;2024-02-26T02:11:52;42.50;;;26.00;;
76795;SDS011;65745;50.278;18.192;2024-02-26T02:14:25;40.20;;;23.50;;
76795;SDS011;65745;50.278;18.192;2024-02-26T02:16:57;48.00;;;29.30;;
76795;SDS011;65745;50.278;18.192;2024-02-26T02:19:30;40.40;;;27.70;;
76795;SDS011;65745;50.278;18.192;2024-02-26T02:22:02;38.20;;;25.80;;
76795;SDS011;65745;50.278;18.192;2024-02-26T02:24:34;49.60;;;29.40;;
76795;SDS011;65745;50.278;18.192;2024-02-26T02:27:06;45.00;;;28.90;;
76795;SDS011;65745;50.278;18.192;2024-02-26T02:29:39;46.00;;;27.40;;
76795;SDS011;65745;50.278;18.192;2024-02-26T02:32:11;45.40;;;28.60;;
76795;SDS011;65745;50.278;18.192;2024-02-26T02:34:44;51.90;;;30.40;;
76795;SDS011;65745;50.278;18.192;2024-02-26T02:37:17;45.70;;;29.10;;
76795;SDS011;65745;50.278;18.192;2024-02-26T02:39:49;40.50;;;25.20;;
76795;SDS011;65745;50.278;18.192;2024-02-26T02:42:23;49.40;;;29.20;;
76795;SDS011;65745;50.278;18.192;2024-02-26T02:44:56;41.70;;;27.60;;
76795;SDS011;65745;50.278;18.192;2024-02-26T02:47:28;42.80;;;28.10;;
76795;SDS011;65745;50.278;18.192;2024-02-26T02:50:00;44.40;;;27.30;;
76795;SDS011;65745;50.278;18.192;2024-02-26T02:52:32;45.40;;;29.00;;
76795;SDS011;65745;50.278;18.192;2024-02-26T02:55:05;40.90;;;27.20;;
76795;SDS011;65745;50.278;18.192;2024-02-26T02:57:38;39.70;;;25.50;;
76795;SDS011;65745;50.278;18.192;2024-02-26T03:00:12;40.60;;;24.40;;
76795;SDS011;65745;50.278;18.192;2024-02-26T03:02:45;36.00;;;23.50;;
76795;SDS011;65745;50.278;18.192;2024-02-26T03:05:17;38.80;;;23.20;;
76795;SDS011;65745;50.278;18.192;2024-02-26T03:07:49;41.50;;;23.00;;
76795;SDS011;65745;50.278;18.192;2024-02-26T03:10:22;39.90;;;23.80;;
76795;SDS011;65745;50.278;18.192;2024-02-26T03:12:54;38.30;;;23.50;;
76795;SDS011;65745;50.278;18.192;2024-02-26T03:15:26;37.80;;;23.30;;
76795;SDS011;65745;50.278;18.192;2024-02-26T03:17:58;41.10;;;24.40;;
76795;SDS011;65745;50.278;18.192;2024-02-26T03:20:31;39.90;;;24.20;;
76795;SDS011;65745;50.278;18.192;2024-02-26T03:23:03;33.60;;;22.30;;
76795;SDS011;65745;50.278;18.192;2024-02-26T03:25:39;37.50;;;23.00;;
76795;SDS011;65745;50.278;18.192;2024-02-26T03:28:11;37.80;;;24.00;;
76795;SDS011;65745;50.278;18.192;2024-02-26T03:30:44;35.30;;;22.50;;
76795;SDS011;65745;50.278;18.192;2024-02-26T03:33:17;31.00;;;19.70;;
76795;SDS011;65745;50.278;18.192;2024-02-26T03:35:49;37.40;;;23.50;;
76795;SDS011;65745;50.278;18.192;2024-02-26T03:38:21;34.80;;;21.10;;
76795;SDS011;65745;50.278;18.192;2024-02-26T03:40:53;32.80;;;21.40;;
76795;SDS011;65745;50.278;18.192;2024-02-26T03:43:26;35.30;;;23.70;;
76795;SDS011;65745;50.278;18.192;2024-02-26T03:45:58;34.20;;;21.10;;
76795;SDS011;65745;50.278;18.192;2024-02-26T03:48:30;34.80;;;22.50;;
76795;SDS011;65745;50.278;18.192;2024-02-26T03:51:03;31.20;;;20.00;;
76795;SDS011;65745;50.278;18.192;2024-02-26T03:53:35;29.80;;;19.60;;
76795;SDS011;65745;50.278;18.192;2024-02-26T03:56:08;28.60;;;20.00;;
76795;SDS011;65745;50.278;18.192;2024-02-26T03:58:41;27.80;;;17.90;;
76795;SDS011;65745;50.278;18.192;2024-02-26T04:01:13;33.80;;;21.20;;
76795;SDS011;65745;50.278;18.192;2024-02-26T04:03:46;30.40;;;20.80;;
76795;SDS011;65745;50.278;18.192;2024-02-26T04:06:18;30.70;;;20.80;;
76795;SDS011;65745;50.278;18.192;2024-02-26T04:08:51;32.00;;;20.50;;
76795;SDS011;65745;50.278;18.192;2024-02-26T04:11:24;32.90;;;21.10;;
76795;SDS011;65745;50.278;18.192;2024-02-26T04:13:56;36.00;;;22.10;;
76795;SDS011;65745;50.278;18.192;2024-02-26T04:16:28;33.80;;;22.50;;
76795;SDS011;65745;50.278;18.192;2024-02-26T04:19:00;31.70;;;22.40;;
76795;SDS011;65745;50.278;18.192;2024-02-26T04:21:33;30.60;;;19.90;;
76795;SDS011;65745;50.278;18.192;2024-02-26T04:24:05;60.10;;;31.80;;
76795;SDS011;65745;50.278;18.192;2024-02-26T04:26:37;182.00;;;71.10;;
76795;SDS011;65745;50.278;18.192;2024-02-26T04:29:10;154.80;;;57.60;;
76795;SDS011;65745;50.278;18.192;2024-02-26T04:31:42;77.30;;;35.00;;
76795;SDS011;65745;50.278;18.192;2024-02-26T04:34:15;78.30;;;35.50;;
76795;SDS011;65745;50.278;18.192;2024-02-26T04:36:47;179.70;;;64.40;;
76795;SDS011;65745;50.278;18.192;2024-02-26T04:39:20;145.50;;;51.20;;
76795;SDS011;65745;50.278;18.192;2024-02-26T04:41:52;77.50;;;32.40;;
76795;SDS011;65745;50.278;18.192;2024-02-26T04:44:24;48.70;;;23.40;;
76795;SDS011;65745;50.278;18.192;2024-02-26T04:46:56;32.10;;;19.50;;
76795;SDS011;65745;50.278;18.192;2024-02-26T04:49:31;28.80;;;18.10;;
76795;SDS011;65745;50.278;18.192;2024-02-26T04:52:03;23.80;;;17.30;;
76795;SDS011;65745;50.278;18.192;2024-02-26T04:54:36;23.30;;;17.10;;
76795;SDS011;65745;50.278;18.192;2024-02-26T04:57:08;23.90;;;16.30;;
76795;SDS011;65745;50.278;18.192;2024-02-26T04:59:41;24.80;;;16.40;;
76795;SDS011;65745;50.278;18.192;2024-02-26T05:02:14;24.00;;;16.00;;
76795;SDS011;65745;50.278;18.192;2024-02-26T05:04:46;26.10;;;16.90;;
76795;SDS011;65745;50.278;18.192;2024-02-26T05:07:18;23.40;;;16.60;;
76795;SDS011;65745;50.278;18.192;2024-02-26T05:09:51;23.60;;;16.30;;
76795;SDS011;65745;50.278;18.192;2024-02-26T05:12:23;22.80;;;16.00;;
76795;SDS011;65745;50.278;18.192;2024-02-26T05:14:55;20.80;;;16.10;;
76795;SDS011;65745;50.278;18.192;2024-02-26T05:17:28;19.20;;;13.80;;
76795;SDS011;65745;50.278;18.192;2024-02-26T05:20:00;20.60;;;13.80;;
76795;SDS011;65745;50.278;18.192;2024-02-26T05:22:33;24.10;;;15.70;;
76795;SDS011;65745;50.278;18.192;2024-02-26T05:25:05;26.20;;;16.90;;
76795;SDS011;65745;50.278;18.192;2024-02-26T05:27:38;23.40;;;15.90;;
76795;SDS011;65745;50.278;18.192;2024-02-26T05:30:12;20.70;;;14.30;;
76795;SDS011;65745;50.278;18.192;2024-02-26T05:32:45;22.10;;;14.90;;
76795;SDS011;65745;50.278;18.192;2024-02-26T05:35:17;24.70;;;17.10;;
76795;SDS011;65745;50.278;18.192;2024-02-26T05:37:49;25.10;;;17.20;;
76795;SDS011;65745;50.278;18.192;2024-02-26T05:40:23;20.70;;;15.40;;
76795;SDS011;65745;50.278;18.192;2024-02-26T05:42:55;23.10;;;16.70;;
76795;SDS011;65745;50.278;18.192;2024-02-26T05:45:27;16.90;;;14.10;;
76795;SDS011;65745;50.278;18.192;2024-02-26T05:47:59;19.20;;;14.50;;
76795;SDS011;65745;50.278;18.192;2024-02-26T05:50:32;19.00;;;13.20;;
76795;SDS011;65745;50.278;18.192;2024-02-26T05:53:05;14.60;;;10.20;;
76795;SDS011;65745;50.278;18.192;2024-02-26T05:55:37;19.00;;;12.40;;
76795;SDS011;65745;50.278;18.192;2024-02-26T05:58:09;16.80;;;11.60;;
76795;SDS011;65745;50.278;18.192;2024-02-26T06:00:41;13.80;;;10.80;;
76795;SDS011;65745;50.278;18.192;2024-02-26T06:03:14;15.90;;;10.60;;
76795;SDS011;65745;50.278;18.192;2024-02-26T06:05:46;13.90;;;10.30;;
76795;SDS011;65745;50.278;18.192;2024-02-26T06:08:18;19.40;;;16.10;;
76795;SDS011;65745;50.278;18.192;2024-02-26T06:10:51;20.70;;;14.60;;
76795;SDS011;65745;50.278;18.192;2024-02-26T06:13:23;17.40;;;12.70;;
76795;SDS011;65745;50.278;18.192;2024-02-26T06:15:55;16.10;;;11.50;;
76795;SDS011;65745;50.278;18.192;2024-02-26T06:18:28;16.40;;;12.20;;
76795;SDS011;65745;50.278;18.192;2024-02-26T06:21:01;19.50;;;12.10;;
76795;SDS011;65745;50.278;18.192;2024-02-26T06:23:33;20.10;;;12.60;;
76795;SDS011;65745;50.278;18.192;2024-02-26T06:26:05;21.00;;;13.90;;
76795;SDS011;65745;50.278;18.192;2024-02-26T06:28:39;21.50;;;13.80;;
76795;SDS011;65745;50.278;18.192;2024-02-26T06:31:11;20.10;;;13.60;;
76795;SDS011;65745;50.278;18.192;2024-02-26T06:33:44;17.40;;;12.70;;
76795;SDS011;65745;50.278;18.192;2024-02-26T06:36:16;20.90;;;14.30;;
76795;SDS011;65745;50.278;18.192;2024-02-26T06:38:49;26.30;;;15.90;;
76795;SDS011;65745;50.278;18.192;2024-02-26T06:41:23;29.60;;;17.60;;
76795;SDS011;65745;50.278;18.192;2024-02-26T06:43:57;23.60;;;15.90;;
76795;SDS011;65745;50.278;18.192;2024-02-26T06:46:29;25.20;;;16.90;;
76795;SDS011;65745;50.278;18.192;2024-02-26T06:49:01;29.20;;;19.20;;
76795;SDS011;65745;50.278;18.192;2024-02-26T06:51:33;22.30;;;14.60;;
76795;SDS011;65745;50.278;18.192;2024-02-26T06:54:06;19.50;;;13.30;;
76795;SDS011;65745;50.278;18.192;2024-02-26T06:56:39;15.80;;;12.20;;
76795;SDS011;65745;50.278;18.192;2024-02-26T06:59:11;18.50;;;13.60;;
76795;SDS011;65745;50.278;18.192;2024-02-26T07:01:43;18.00;;;12.30;;
76795;SDS011;65745;50.278;18.192;2024-02-26T07:04:15;22.10;;;13.70;;
76795;SDS011;65745;50.278;18.192;2024-02-26T07:06:48;25.30;;;16.40;;
76795;SDS011;65745;50.278;18.192;2024-02-26T07:09:20;28.60;;;16.50;;
76795;SDS011;65745;50.278;18.192;2024-02-26T07:11:53;25.90;;;15.30;;
76795;SDS011;65745;50.278;18.192;2024-02-26T07:14:30;33.20;;;17.60;;
76795;SDS011;65745;50.278;18.192;2024-02-26T07:17:03;28.50;;;16.90;;
76795;SDS011;65745;50.278;18.192;2024-02-26T07:19:35;25.80;;;16.90;;
76795;SDS011;65745;50.278;18.192;2024-02-26T07:22:07;26.10;;;16.00;;
76795;SDS011;65745;50.278;18.192;2024-02-26T07:24:40;22.20;;;13.80;;
76795;SDS011;65745;50.278;18.192;2024-02-26T07:27:12;22.70;;;15.00;;
76795;SDS011;65745;50.278;18.192;2024-02-26T07:29:47;26.80;;;15.80;;
76795;SDS011;65745;50.278;18.192;2024-02-26T07:32:19;25.40;;;15.60;;
76795;SDS011;65745;50.278;18.192;2024-02-26T07:34:51;26.20;;;17.10;;
76795;SDS011;65745;50.278;18.192;2024-02-26T07:37:23;28.00;;;19.20;;
76795;SDS011;65745;50.278;18.192;2024-02-26T07:39:56;22.80;;;15.90;;
76795;SDS011;65745;50.278;18.192;2024-02-26T07:42:28;19.10;;;13.90;;
76795;SDS011;65745;50.278;18.192;2024-02-26T07:45:01;27.30;;;16.80;;
76795;SDS011;65745;50.278;18.192;2024-02-26T07:47:34;22.90;;;16.10;;
76795;SDS011;65745;50.278;18.192;2024-02-26T07:50:10;30.80;;;19.70;;
76795;SDS011;65745;50.278;18.192;2024-02-26T07:52:42;24.60;;;18.00;;
76795;SDS011;65745;50.278;18.192;2024-02-26T07:55:15;23.90;;;18.30;;
76795;SDS011;65745;50.278;18.192;2024-02-26T07:57:48;16.20;;;13.70;;
76795;SDS011;65745;50.278;18.192;2024-02-26T08:00:20;17.40;;;12.80;;
76795;SDS011;65745;50.278;18.192;2024-02-26T08:02:53;17.50;;;12.70;;
76795;SDS011;65745;50.278;18.192;2024-02-26T08:05:25;16.90;;;11.50;;
76795;SDS011;65745;50.278;18.192;2024-02-26T08:07:57;14.70;;;11.30;;
76795;SDS011;65745;50.278;18.192;2024-02-26T08:10:29;17.40;;;12.60;;
76795;SDS011;65745;50.278;18.192;2024-02-26T08:13:02;18.10;;;13.60;;
76795;SDS011;65745;50.278;18.192;2024-02-26T08:15:35;14.30;;;11.70;;
76795;SDS011;65745;50.278;18.192;2024-02-26T08:18:07;16.40;;;11.90;;
76795;SDS011;65745;50.278;18.192;2024-02-26T08:20:40;14.80;;;11.30;;
76795;SDS011;65745;50.278;18.192;2024-02-26T08:23:12;16.80;;;12.00;;
76795;SDS011;65745;50.278;18.192;2024-02-26T08:25:44;21.70;;;15.60;;
76795;SDS011;65745;50.278;18.192;2024-02-26T08:28:17;24.10;;;15.80;;
76795;SDS011;65745;50.278;18.192;2024-02-26T08:30:49;24.40;;;15.00;;
76795;SDS011;65745;50.278;18.192;2024-02-26T08:33:21;21.40;;;14.80;;
76795;SDS011;65745;50.278;18.192;2024-02-26T08:35:53;22.30;;;14.20;;
76795;SDS011;65745;50.278;18.192;2024-02-26T08:38:26;21.30;;;14.40;;
76795;SDS011;65745;50.278;18.192;2024-02-26T08:40:58;21.30;;;13.70;;
76795;SDS011;65745;50.278;18.192;2024-02-26T08:43:30;18.00;;;12.90;;
76795;SDS011;65745;50.278;18.192;2024-02-26T08:46:03;18.80;;;13.30;;
76795;SDS011;65745;50.278;18.192;2024-02-26T08:48:38;18.70;;;12.90;;
76795;SDS011;65745;50.278;18.192;2024-02-26T08:51:11;15.80;;;11.10;;
76795;SDS011;65745;50.278;18.192;2024-02-26T08:53:44;16.30;;;11.70;;
76795;SDS011;65745;50.278;18.192;2024-02-26T08:56:16;19.30;;;12.40;;
76795;SDS011;65745;50.278;18.192;2024-02-26T08:58:50;15.50;;;10.60;;
76795;SDS011;65745;50.278;18.192;2024-02-26T09:01:26;12.90;;;9.50;;
76795;SDS011;65745;50.278;18.192;2024-02-26T09:03:58;13.30;;;9.60;;
76795;SDS011;65745;50.278;18.192;2024-02-26T09:06:30;11.70;;;8.30;;
76795;SDS011;65745;50.278;18.192;2024-02-26T09:09:02;12.00;;;7.90;;
76795;SDS011;65745;50.278;18.192;2024-02-26T09:11:34;11.30;;;7.10;;
76795;SDS011;65745;50.278;18.192;2024-02-26T09:14:07;11.20;;;8.60;;
76795;SDS011;65745;50.278;18.192;2024-02-26T09:16:39;13.70;;;8.50;;
76795;SDS011;65745;50.278;18.192;2024-02-26T09:19:11;15.40;;;8.90;;
76795;SDS011;65745;50.278;18.192;2024-02-26T09:21:44;13.50;;;8.70;;
76795;SDS011;65745;50.278;18.192;2024-02-26T09:24:17;13.10;;;8.80;;
76795;SDS011;65745;50.278;18.192;2024-02-26T09:26:49;9.50;;;7.70;;
76795;SDS011;65745;50.278;18.192;2024-02-26T09:29:21;11.20;;;7.50;;
76795;SDS011;65745;50.278;18.192;2024-02-26T09:31:55;13.10;;;8.90;;
76795;SDS011;65745;50.278;18.192;2024-02-26T09:34:27;12.10;;;9.30;;
76795;SDS011;65745;50.278;18.192;2024-02-26T09:37:00;13.40;;;8.60;;
76795;SDS011;65745;50.278;18.192;2024-02-26T09:39:43;16.80;;;12.80;;
76795;SDS011;65745;50.278;18.192;2024-02-26T09:42:17;12.10;;;8.10;;
76795;SDS011;65745;50.278;18.192;2024-02-26T09:44:50;12.60;;;8.40;;
76795;SDS011;65745;50.278;18.192;2024-02-26T09:47:24;10.00;;;6.90;;
76795;SDS011;65745;50.278;18.192;2024-02-26T09:49:59;8.20;;;6.80;;
76795;SDS011;65745;50.278;18.192;2024-02-26T09:52:33;8.10;;;6.30;;
76795;SDS011;65745;50.278;18.192;2024-02-26T09:55:08;9.90;;;6.10;;
76795;SDS011;65745;50.278;18.192;2024-02-26T09:57:42;8.30;;;5.10;;
76795;SDS011;65745;50.278;18.192;2024-02-26T10:00:17;8.20;;;6.20;;
76795;SDS011;65745;50.278;18.192;2024-02-26T10:02:52;7.20;;;5.00;;
76795;SDS011;65745;50.278;18.192;2024-02-26T10:05:26;9.30;;;5.50;;
76795;SDS011;65745;50.278;18.192;2024-02-26T10:07:59;8.20;;;4.70;;
76795;SDS011;65745;50.278;18.192;2024-02-26T10:10:32;9.30;;;5.40;;
76795;SDS011;65745;50.278;18.192;2024-02-26T10:13:05;7.70;;;5.00;;
76795;SDS011;65745;50.278;18.192;2024-02-26T10:15:40;10.10;;;6.20;;
76795;SDS011;65745;50.278;18.192;2024-02-26T10:18:12;7.30;;;5.30;;
76795;SDS011;65745;50.278;18.192;2024-02-26T10:20:45;8.20;;;5.60;;
76795;SDS011;65745;50.278;18.192;2024-02-26T10:23:32;7.40;;;5.20;;
76795;SDS011;65745;50.278;18.192;2024-02-26T10:26:04;7.40;;;5.70;;
76795;SDS011;65745;50.278;18.192;2024-02-26T10:28:41;7.20;;;5.40;;
76795;SDS011;65745;50.278;18.192;2024-02-26T10:31:16;10.90;;;5.50;;
76795;SDS011;65745;50.278;18.192;2024-02-26T10:33:49;8.90;;;5.30;;
76795;SDS011;65745;50.278;18.192;2024-02-26T10:36:27;8.40;;;5.90;;
76795;SDS011;65745;50.278;18.192;2024-02-26T10:39:16;8.40;;;5.50;;
76795;SDS011;65745;50.278;18.192;2024-02-26T10:41:49;10.00;;;6.70;;
76795;SDS011;65745;50.278;18.192;2024-02-26T10:44:22;8.30;;;6.30;;
76795;SDS011;65745;50.278;18.192;2024-02-26T10:46:56;9.50;;;6.70;;
76795;SDS011;65745;50.278;18.192;2024-02-26T10:49:28;9.20;;;6.90;;
76795;SDS011;65745;50.278;18.192;2024-02-26T10:52:00;10.30;;;6.90;;
76795;SDS011;65745;50.278;18.192;2024-02-26T10:54:36;11.10;;;7.40;;
76795;SDS011;65745;50.278;18.192;2024-02-26T10:57:13;11.70;;;7.80;;
76795;SDS011;65745;50.278;18.192;2024-02-26T10:59:47;9.70;;;7.50;;
76795;SDS011;65745;50.278;18.192;2024-02-26T11:02:22;11.20;;;6.90;;
76795;SDS011;65745;50.278;18.192;2024-02-26T11:04:54;11.20;;;7.50;;
76795;SDS011;65745;50.278;18.192;2024-02-26T11:07:27;12.00;;;8.00;;
76795;SDS011;65745;50.278;18.192;2024-02-26T11:10:00;9.90;;;7.20;;
76795;SDS011;65745;50.278;18.192;2024-02-26T11:12:34;10.50;;;7.00;;
76795;SDS011;65745;50.278;18.192;2024-02-26T11:15:08;11.00;;;6.60;;
76795;SDS011;65745;50.278;18.192;2024-02-26T11:17:42;12.80;;;8.10;;
76795;SDS011;65745;50.278;18.192;2024-02-26T11:20:16;8.30;;;5.80;;
76795;SDS011;65745;50.278;18.192;2024-02-26T11:22:50;9.00;;;6.40;;
76795;SDS011;65745;50.278;18.192;2024-02-26T11:25:22;7.50;;;5.20;;
76795;SDS011;65745;50.278;18.192;2024-02-26T11:27:55;6.50;;;4.60;;
76795;SDS011;65745;50.278;18.192;2024-02-26T11:30:33;7.10;;;4.30;;
76795;SDS011;65745;50.278;18.192;2024-02-26T11:33:10;8.70;;;5.20;;
76795;SDS011;65745;50.278;18.192;2024-02-26T11:35:44;5.50;;;4.20;;
76795;SDS011;65745;50.278;18.192;2024-02-26T11:38:21;6.50;;;4.80;;
76795;SDS011;65745;50.278;18.192;2024-02-26T11:40:54;5.30;;;3.60;;
76795;SDS011;65745;50.278;18.192;2024-02-26T11:46:27;5.70;;;3.80;;
76795;SDS011;65745;50.278;18.192;2024-02-26T11:49:00;6.10;;;4.30;;
76795;SDS011;65745;50.278;18.192;2024-02-26T11:51:54;6.10;;;3.50;;
76795;SDS011;65745;50.278;18.192;2024-02-26T11:54:39;5.80;;;4.30;;
76795;SDS011;65745;50.278;18.192;2024-02-26T11:57:22;6.40;;;4.00;;
76795;SDS011;65745;50.278;18.192;2024-02-26T11:59:56;5.10;;;3.50;;
76795;SDS011;65745;50.278;18.192;2024-02-26T12:02:43;6.30;;;4.20;;
76795;SDS011;65745;50.278;18.192;2024-02-26T12:05:17;10.10;;;7.70;;
76795;SDS011;65745;50.278;18.192;2024-02-26T12:07:54;83.80;;;63.40;;
76795;SDS011;65745;50.278;18.192;2024-02-26T12:10:33;7.40;;;6.20;;
76795;SDS011;65745;50.278;18.192;2024-02-26T12:13:10;7.60;;;5.80;;
76795;SDS011;65745;50.278;18.192;2024-02-26T12:15:54;18.50;;;11.80;;
76795;SDS011;65745;50.278;18.192;2024-02-26T12:18:28;35.10;;;14.70;;
76795;SDS011;65745;50.278;18.192;2024-02-26T12:21:02;26.20;;;15.00;;
76795;SDS011;65745;50.278;18.192;2024-02-26T12:23:36;4.60;;;2.90;;
76795;SDS011;65745;50.278;18.192;2024-02-26T12:26:08;117.50;;;60.30;;
76795;SDS011;65745;50.278;18.192;2024-02-26T12:28:42;28.50;;;12.90;;
76795;SDS011;65745;50.278;18.192;2024-02-26T12:31:17;30.40;;;13.80;;
76795;SDS011;65745;50.278;18.192;2024-02-26T12:33:49;78.00;;;35.10;;
76795;SDS011;65745;50.278;18.192;2024-02-26T12:36:22;19.70;;;11.50;;
76795;SDS011;65745;50.278;18.192;2024-02-26T12:38:54;4.10;;;3.30;;
76795;SDS011;65745;50.278;18.192;2024-02-26T12:41:27;5.70;;;3.50;;
76795;SDS011;65745;50.278;18.192;2024-02-26T12:44:00;6.60;;;3.90;;
76795;SDS011;65745;50.278;18.192;2024-02-26T12:46:32;15.20;;;7.40;;
76795;SDS011;65745;50.278;18.192;2024-02-26T12:49:05;4.90;;;3.50;;
76795;SDS011;65745;50.278;18.192;2024-02-26T12:51:37;8.00;;;3.50;;
76795;SDS011;65745;50.278;18.192;2024-02-26T12:54:11;5.10;;;3.50;;
76795;SDS011;65745;50.278;18.192;2024-02-26T12:56:44;6.30;;;3.80;;
76795;SDS011;65745;50.278;18.192;2024-02-26T12:59:17;4.50;;;3.00;;
76795;SDS011;65745;50.278;18.192;2024-02-26T13:01:49;24.70;;;11.00;;
76795;SDS011;65745;50.278;18.192;2024-02-26T13:04:21;6.70;;;4.00;;
76795;SDS011;65745;50.278;18.192;2024-02-26T13:06:54;8.70;;;4.60;;
76795;SDS011;65745;50.278;18.192;2024-02-26T13:09:34;6.80;;;4.00;;
76795;SDS011;65745;50.278;18.192;2024-02-26T13:12:07;8.20;;;5.20;;
76795;SDS011;65745;50.278;18.192;2024-02-26T13:14:42;5.10;;;3.40;;
76795;SDS011;65745;50.278;18.192;2024-02-26T13:17:14;7.00;;;5.00;;
76795;SDS011;65745;50.278;18.192;2024-02-26T13:19:54;5.20;;;3.30;;
76795;SDS011;65745;50.278;18.192;2024-02-26T13:22:27;5.30;;;3.50;;
76795;SDS011;65745;50.278;18.192;2024-02-26T13:25:02;8.10;;;4.60;;
76795;SDS011;65745;50.278;18.192;2024-02-26T13:27:37;7.30;;;4.90;;
76795;SDS011;65745;50.278;18.192;2024-02-26T13:30:12;5.90;;;4.00;;
76795;SDS011;65745;50.278;18.192;2024-02-26T13:32:44;6.20;;;5.30;;
76795;SDS011;65745;50.278;18.192;2024-02-26T13:35:16;4.50;;;3.20;;
76795;SDS011;65745;50.278;18.192;2024-02-26T13:37:49;4.70;;;3.70;;
76795;SDS011;65745;50.278;18.192;2024-02-26T13:40:21;4.10;;;3.20;;
76795;SDS011;65745;50.278;18.192;2024-02-26T13:42:53;4.40;;;3.60;;
76795;SDS011;65745;50.278;18.192;2024-02-26T13:45:26;3.70;;;3.00;;
76795;SDS011;65745;50.278;18.192;2024-02-26T13:48:06;7.90;;;4.70;;
76795;SDS011;65745;50.278;18.192;2024-02-26T13:50:41;4.70;;;3.50;;
76795;SDS011;65745;50.278;18.192;2024-02-26T13:53:15;5.70;;;3.90;;
76795;SDS011;65745;50.278;18.192;2024-02-26T13:55:47;5.30;;;4.10;;
76795;SDS011;65745;50.278;18.192;2024-02-26T13:58:19;4.40;;;3.30;;
76795;SDS011;65745;50.278;18.192;2024-02-26T14:00:53;5.20;;;3.40;;
76795;SDS011;65745;50.278;18.192;2024-02-26T14:03:25;9.40;;;8.70;;
76795;SDS011;65745;50.278;18.192;2024-02-26T14:05:58;5.80;;;5.00;;
76795;SDS011;65745;50.278;18.192;2024-02-26T14:08:31;21.30;;;19.60;;
76795;SDS011;65745;50.278;18.192;2024-02-26T14:11:04;55.80;;;34.60;;
76795;SDS011;65745;50.278;18.192;2024-02-26T14:13:36;25.10;;;14.40;;
76795;SDS011;65745;50.278;18.192;2024-02-26T14:16:12;5.40;;;3.70;;
76795;SDS011;65745;50.278;18.192;2024-02-26T14:18:44;32.30;;;16.80;;
76795;SDS011;65745;50.278;18.192;2024-02-26T14:21:17;56.20;;;23.00;;
76795;SDS011;65745;50.278;18.192;2024-02-26T14:23:50;61.50;;;23.80;;
76795;SDS011;65745;50.278;18.192;2024-02-26T14:26:22;62.40;;;22.70;;
76795;SDS011;65745;50.278;18.192;2024-02-26T14:28:54;73.40;;;26.10;;
76795;SDS011;65745;50.278;18.192;2024-02-26T14:31:27;19.20;;;8.60;;
76795;SDS011;65745;50.278;18.192;2024-02-26T14:33:59;24.30;;;11.70;;
76795;SDS011;65745;50.278;18.192;2024-02-26T14:36:32;11.60;;;5.10;;
76795;SDS011;65745;50.278;18.192;2024-02-26T14:39:04;5.10;;;3.50;;
76795;SDS011;65745;50.278;18.192;2024-02-26T14:41:36;5.30;;;3.10;;
76795;SDS011;65745;50.278;18.192;2024-02-26T14:44:08;8.50;;;4.80;;
76795;SDS011;65745;50.278;18.192;2024-02-26T14:46:41;13.80;;;7.20;;
76795;SDS011;65745;50.278;18.192;2024-02-26T14:49:14;7.30;;;4.60;;
76795;SDS011;65745;50.278;18.192;2024-02-26T14:51:46;7.10;;;4.20;;
76795;SDS011;65745;50.278;18.192;2024-02-26T14:54:19;5.50;;;3.80;;